Time;durP1;ratioP1;P1;durP2;ratioP2;P2;SDS_P1;SDS_P2;PMS_P1;PMS_P2;Temp;Humidity;BMP_temperature;BMP_pressure;BME280_temperature;BME280_humidity;BME280_pressure;Samples;Min_cycle;Max_cycle;Signal;HPM_P1;HPM_P2
2023/08/10 00:00:39;;;;;;;7.43;2.78;;;13.90;99.90;;;;;;7374338;19;20018;-61
2023/08/10 00:03:05;;;;;;;6.32;2.85;;;13.90;99.90;;;;;;7371659;19;20785;-61
2023/08/10 00:05:32;;;;;;;7.45;2.78;;;13.90;99.90;;;;;;7374630;19;20772;-61
2023/08/10 00:07:58;;;;;;;8.13;2.97;;;13.90;99.90;;;;;;7370431;19;20127;-61
2023/08/10 00:10:24;;;;;;;7.97;2.88;;;13.90;99.90;;;;;;7373614;19;20394;-61
2023/08/10 00:12:50;;;;;;;10.63;3.45;;;14.00;99.90;;;;;;7371419;19;20046;-61
2023/08/10 00:15:17;;;;;;;9.20;3.05;;;14.00;99.90;;;;;;7368800;19;20019;-61
2023/08/10 00:17:46;;;;;;;6.50;2.60;;;14.00;99.90;;;;;;7370610;19;20019;-61
2023/08/10 00:20:13;;;;;;;5.85;2.88;;;14.00;99.90;;;;;;7370028;19;20066;-61
2023/08/10 00:22:39;;;;;;;7.20;3.00;;;13.90;99.90;;;;;;7370920;19;20431;-61
2023/08/10 00:25:07;;;;;;;4.88;2.20;;;13.90;99.90;;;;;;7367639;19;20842;-61
2023/08/10 00:27:35;;;;;;;8.60;3.08;;;14.00;99.90;;;;;;7371122;19;20022;-62
2023/08/10 00:30:01;;;;;;;6.90;2.70;;;13.90;99.90;;;;;;7370564;19;20572;-61
2023/08/10 00:32:28;;;;;;;7.10;2.95;;;13.80;99.90;;;;;;7372035;19;20017;-61
2023/08/10 00:34:54;;;;;;;9.35;3.17;;;13.90;99.90;;;;;;7370023;19;20082;-61
2023/08/10 00:37:21;;;;;;;8.52;2.70;;;13.80;99.90;;;;;;7369669;19;20022;-61
2023/08/10 00:39:47;;;;;;;6.10;2.45;;;13.80;99.90;;;;;;7370361;19;20014;-61
2023/08/10 00:42:13;;;;;;;7.60;3.05;;;13.80;99.90;;;;;;7369199;19;20022;-62
2023/08/10 00:44:39;;;;;;;5.25;2.70;;;13.80;99.90;;;;;;7370671;19;20022;-61
2023/08/10 00:47:07;;;;;;;9.20;3.40;;;13.70;99.90;;;;;;7374736;19;20489;-61
2023/08/10 00:49:33;;;;;;;4.97;2.85;;;13.70;99.90;;;;;;7380197;19;20420;-58
2023/08/10 00:52:00;;;;;;;7.25;2.78;;;13.70;99.90;;;;;;7376062;19;20396;-58
2023/08/10 00:54:27;;;;;;;5.20;2.80;;;13.60;99.90;;;;;;7368960;19;20022;-58
2023/08/10 00:56:53;;;;;;;8.05;3.22;;;13.60;99.90;;;;;;7376605;19;20670;-58
2023/08/10 00:59:19;;;;;;;5.65;2.78;;;13.60;99.90;;;;;;7377569;19;20018;-58
2023/08/10 01:01:46;;;;;;;6.20;3.38;;;13.60;99.90;;;;;;7380411;19;20022;-58
2023/08/10 01:04:14;;;;;;;9.20;3.40;;;13.60;99.90;;;;;;7378154;19;20022;-58
2023/08/10 01:06:52;;;;;;;6.65;2.85;;;13.60;99.90;;;;;;7376411;19;20029;-58
2023/08/10 01:09:54;;;;;;;9.57;2.88;;;13.60;99.90;;;;;;7376007;19;20473;-58
2023/08/10 01:12:23;;;;;;;5.47;2.63;;;13.60;99.90;;;;;;7374757;19;20011;-58
2023/08/10 01:15:02;;;;;;;7.40;3.80;;;13.60;99.90;;;;;;7379641;19;20348;-58
2023/08/10 01:17:34;;;;;;;6.50;2.95;;;13.60;99.90;;;;;;7377924;19;20584;-58
2023/08/10 01:20:07;;;;;;;12.07;3.03;;;13.60;99.90;;;;;;7376575;19;20014;-58
2023/08/10 01:22:43;;;;;;;6.70;2.85;;;13.60;99.90;;;;;;7377435;19;20033;-60
2023/08/10 01:25:11;;;;;;;7.38;2.80;;;13.60;99.90;;;;;;7376645;19;20025;-58
2023/08/10 01:27:38;;;;;;;6.75;3.30;;;13.60;99.90;;;;;;7376086;19;20018;-58
2023/08/10 01:30:07;;;;;;;11.32;3.30;;;13.60;99.90;;;;;;7374630;19;20023;-58
2023/08/10 01:32:34;;;;;;;8.90;3.17;;;13.60;99.90;;;;;;7376523;19;20022;-58
2023/08/10 01:35:05;;;;;;;6.30;2.67;;;13.50;99.90;;;;;;7376034;19;20050;-58
2023/08/10 01:37:32;;;;;;;9.18;3.30;;;13.50;99.90;;;;;;7376174;19;20019;-58
2023/08/10 01:40:00;;;;;;;7.07;2.50;;;13.40;99.90;;;;;;7377935;19;20602;-58
2023/08/10 01:42:26;;;;;;;11.48;3.17;;;13.40;99.90;;;;;;7375328;19;20018;-58
2023/08/10 01:44:53;;;;;;;6.97;3.30;;;13.30;99.90;;;;;;7370510;19;20026;-58
2023/08/10 01:47:27;;;;;;;9.05;3.25;;;13.30;99.90;;;;;;7374019;19;20093;-57
2023/08/10 01:49:56;;;;;;;5.35;2.60;;;13.20;99.90;;;;;;7378702;19;20114;-58
2023/08/10 01:52:27;;;;;;;9.23;3.42;;;13.20;99.90;;;;;;7375853;19;20026;-61
2023/08/10 01:54:57;;;;;;;5.25;2.72;;;13.20;99.90;;;;;;7375833;19;20396;-58
2023/08/10 01:57:23;;;;;;;5.38;3.30;;;13.10;99.90;;;;;;7377973;19;20019;-58
2023/08/10 01:59:50;;;;;;;5.72;2.67;;;13.10;99.90;;;;;;7376939;19;20019;-58
2023/08/10 02:02:16;;;;;;;5.38;2.95;;;13.00;99.90;;;;;;7375818;19;20048;-59
2023/08/10 02:04:42;;;;;;;6.95;3.20;;;13.10;99.90;;;;;;7374818;19;20614;-58
2023/08/10 02:07:08;;;;;;;5.00;3.13;;;13.10;99.90;;;;;;7377127;19;20018;-58
2023/08/10 02:09:36;;;;;;;7.43;3.63;;;13.10;99.90;;;;;;7375213;19;20063;-60
2023/08/10 02:12:02;;;;;;;7.55;3.13;;;13.10;99.90;;;;;;7372504;19;20036;-60
2023/08/10 02:14:28;;;;;;;5.85;2.95;;;13.10;99.90;;;;;;7374854;19;20463;-58
2023/08/10 02:16:56;;;;;;;5.55;3.03;;;13.00;99.90;;;;;;7374800;19;20108;-58
2023/08/10 02:19:22;;;;;;;5.60;3.30;;;13.00;99.90;;;;;;7372589;19;20098;-58
2023/08/10 02:21:50;;;;;;;6.70;3.15;;;12.90;99.90;;;;;;7375056;19;20014;-60
2023/08/10 02:24:16;;;;;;;6.60;2.83;;;12.80;99.90;;;;;;7374924;19;20528;-61
2023/08/10 02:26:43;;;;;;;6.43;3.30;;;12.80;99.90;;;;;;7372474;19;20372;-58
2023/08/10 02:29:09;;;;;;;7.72;2.80;;;12.70;99.90;;;;;;7373018;19;20030;-58
2023/08/10 02:31:36;;;;;;;6.88;3.00;;;12.60;99.90;;;;;;7372469;19;20509;-58
2023/08/10 02:34:03;;;;;;;5.15;2.60;;;12.60;99.90;;;;;;7374796;19;20150;-58
2023/08/10 02:36:30;;;;;;;7.63;3.20;;;12.60;99.90;;;;;;7372936;19;20046;-58
2023/08/10 02:38:56;;;;;;;9.60;3.90;;;12.60;99.90;;;;;;7375211;19;20117;-58
2023/08/10 02:41:22;;;;;;;8.75;3.15;;;12.70;99.90;;;;;;7373304;19;20901;-58
2023/08/10 02:43:50;;;;;;;8.30;3.40;;;12.70;99.90;;;;;;7374924;19;20022;-58
2023/08/10 02:46:17;;;;;;;8.65;3.38;;;12.70;99.90;;;;;;7374676;19;20022;-58
2023/08/10 02:48:43;;;;;;;6.10;3.55;;;12.70;99.90;;;;;;7373558;19;20018;-58
2023/08/10 02:51:09;;;;;;;7.80;3.78;;;12.70;99.90;;;;;;7374206;19;20590;-58
2023/08/10 02:53:36;;;;;;;8.15;4.20;;;12.80;99.90;;;;;;7371754;19;20018;-60
2023/08/10 02:56:02;;;;;;;8.30;3.75;;;12.80;99.90;;;;;;7370771;19;20019;-61
2023/08/10 02:58:29;;;;;;;6.95;3.67;;;12.80;99.90;;;;;;7372615;19;20015;-61
2023/08/10 03:00:56;;;;;;;7.97;3.75;;;12.80;99.90;;;;;;7372070;19;20502;-60
2023/08/10 03:03:23;;;;;;;6.97;3.58;;;12.90;99.90;;;;;;7370445;19;20520;-60
2023/08/10 03:05:49;;;;;;;8.93;3.45;;;12.90;99.90;;;;;;7370714;19;20972;-58
2023/08/10 03:08:16;;;;;;;7.97;3.60;;;12.80;99.90;;;;;;7370874;19;20742;-58
2023/08/10 03:10:42;;;;;;;7.32;3.67;;;12.80;99.90;;;;;;7371654;19;20605;-58
2023/08/10 03:13:08;;;;;;;8.93;3.53;;;12.80;99.90;;;;;;7373065;19;20026;-61
2023/08/10 03:15:35;;;;;;;8.23;3.60;;;12.90;99.90;;;;;;7373146;19;20111;-61
2023/08/10 03:18:01;;;;;;;11.65;3.38;;;12.90;99.90;;;;;;7372277;19;20496;-60
2023/08/10 03:20:28;;;;;;;7.07;3.35;;;12.90;99.90;;;;;;7371821;19;20065;-61
2023/08/10 03:22:56;;;;;;;9.65;4.18;;;12.90;99.90;;;;;;7372704;19;20014;-58
2023/08/10 03:25:22;;;;;;;8.65;3.67;;;12.90;99.90;;;;;;7370295;19;20568;-58
2023/08/10 03:27:49;;;;;;;7.15;3.65;;;12.90;99.90;;;;;;7371829;19;20387;-58
2023/08/10 03:30:18;;;;;;;8.38;3.72;;;13.00;99.90;;;;;;7370744;19;20109;-58
2023/08/10 03:32:45;;;;;;;9.23;3.80;;;13.00;99.90;;;;;;7370958;19;20486;-58
2023/08/10 03:35:14;;;;;;;8.77;4.28;;;13.00;99.90;;;;;;7370255;19;20035;-58
2023/08/10 03:37:41;;;;;;;9.20;4.10;;;13.10;99.90;;;;;;7370742;19;20537;-58
2023/08/10 03:40:08;;;;;;;7.55;3.70;;;13.10;99.90;;;;;;7369317;19;20123;-59
2023/08/10 03:42:34;;;;;;;10.90;3.90;;;13.10;99.90;;;;;;7372119;19;20477;-58
2023/08/10 03:45:07;;;;;;;10.32;4.38;;;13.10;99.90;;;;;;7371000;19;20019;-58
2023/08/10 03:47:33;;;;;;;9.52;4.22;;;13.20;99.90;;;;;;7371067;19;20019;-58
2023/08/10 03:50:03;;;;;;;8.35;4.30;;;13.20;99.90;;;;;;7369963;19;20018;-59
2023/08/10 03:52:30;;;;;;;9.02;4.28;;;13.20;99.90;;;;;;7370973;19;20099;-61
2023/08/10 03:54:56;;;;;;;8.85;4.25;;;13.20;99.90;;;;;;7370777;19;20543;-58
2023/08/10 03:57:23;;;;;;;6.40;3.92;;;13.20;99.90;;;;;;7372269;19;20099;-58
2023/08/10 03:59:49;;;;;;;9.63;4.53;;;13.30;99.90;;;;;;7370294;19;20489;-59
2023/08/10 04:02:15;;;;;;;7.63;3.80;;;13.30;99.90;;;;;;7367590;19;20021;-61
2023/08/10 04:04:41;;;;;;;10.18;3.85;;;13.30;99.90;;;;;;7374861;19;20461;-62
2023/08/10 04:07:07;;;;;;;7.70;3.78;;;13.30;99.90;;;;;;7370451;19;20014;-61
2023/08/10 04:09:34;;;;;;;5.50;3.90;;;13.40;99.90;;;;;;7374925;19;20615;-61
2023/08/10 04:12:00;;;;;;;6.93;3.97;;;13.30;99.90;;;;;;7368630;19;20019;-59
2023/08/10 04:14:27;;;;;;;9.35;3.97;;;13.30;99.90;;;;;;7372622;19;20065;-59
2023/08/10 04:16:53;;;;;;;13.32;4.43;;;13.30;99.90;;;;;;7372181;19;20457;-60
2023/08/10 04:19:19;;;;;;;6.13;4.15;;;13.30;99.90;;;;;;7370176;19;20522;-58
2023/08/10 04:22:06;;;;;;;7.70;4.28;;;13.40;99.90;;;;;;7372966;19;20019;-59
2023/08/10 04:24:33;;;;;;;10.55;4.63;;;13.40;99.90;;;;;;7379178;19;20567;-61
2023/08/10 04:27:00;;;;;;;6.93;4.25;;;13.40;99.90;;;;;;7377755;19;20432;-61
2023/08/10 04:29:27;;;;;;;12.63;6.63;;;13.40;99.90;;;;;;7377781;19;20026;-62
2023/08/10 04:31:54;;;;;;;7.85;4.38;;;13.40;99.90;;;;;;7376355;19;20486;-61
2023/08/10 04:34:20;;;;;;;7.07;4.13;;;13.50;99.90;;;;;;7378110;19;20474;-61
2023/08/10 04:36:47;;;;;;;6.47;4.38;;;13.50;99.90;;;;;;7379454;19;20066;-61
2023/08/10 04:39:13;;;;;;;8.13;3.63;;;13.50;99.90;;;;;;7376647;19;20055;-61
2023/08/10 04:41:39;;;;;;;8.02;4.43;;;13.60;99.90;;;;;;7378466;19;20033;-61
2023/08/10 04:44:06;;;;;;;9.57;4.18;;;13.60;99.90;;;;;;7378529;19;20335;-61
2023/08/10 04:46:32;;;;;;;9.77;4.95;;;13.60;99.90;;;;;;7381448;19;20022;-61
2023/08/10 04:48:58;;;;;;;6.55;4.05;;;13.60;99.90;;;;;;7376209;19;20018;-61
2023/08/10 04:51:24;;;;;;;9.25;4.70;;;13.60;99.90;;;;;;7371937;19;20018;-62
2023/08/10 04:53:50;;;;;;;8.60;4.45;;;13.60;99.90;;;;;;7378452;19;20603;-61
2023/08/10 04:56:17;;;;;;;6.63;4.53;;;13.70;99.90;;;;;;7378178;19;20511;-62
2023/08/10 04:58:43;;;;;;;7.55;4.25;;;13.70;99.90;;;;;;7377753;19;20387;-59
2023/08/10 05:01:12;;;;;;;9.45;5.20;;;13.70;99.90;;;;;;7373339;19;20018;-59
2023/08/10 05:03:39;;;;;;;8.98;4.70;;;13.80;99.90;;;;;;7375486;19;20110;-59
2023/08/10 05:06:06;;;;;;;11.45;5.00;;;13.80;99.90;;;;;;7378097;19;20022;-61
2023/08/10 05:08:32;;;;;;;9.05;4.93;;;13.90;99.90;;;;;;7378849;19;20019;-62
2023/08/10 05:10:58;;;;;;;8.18;5.15;;;13.90;99.90;;;;;;7372592;19;20438;-58
2023/08/10 05:13:28;;;;;;;9.40;4.90;;;13.90;99.90;;;;;;7378151;19;21758;-61
2023/08/10 05:15:54;;;;;;;8.75;4.50;;;14.00;99.90;;;;;;7374404;19;20019;-61
2023/08/10 05:18:23;;;;;;;9.63;5.38;;;14.00;99.90;;;;;;7374908;19;20031;-61
2023/08/10 05:20:49;;;;;;;12.23;5.32;;;14.10;99.90;;;;;;7373729;19;20015;-60
2023/08/10 05:23:16;;;;;;;9.88;5.38;;;14.20;99.90;;;;;;7377355;19;20474;-59
2023/08/10 05:25:43;;;;;;;9.50;4.88;;;14.30;99.90;;;;;;7372493;19;20011;-59
2023/08/10 05:28:09;;;;;;;7.88;4.90;;;14.30;99.90;;;;;;7376256;19;20015;-60
2023/08/10 05:30:36;;;;;;;10.50;5.47;;;14.30;99.90;;;;;;7374286;19;20018;-60
2023/08/10 05:33:02;;;;;;;8.82;4.88;;;14.40;99.90;;;;;;7374681;19;20336;-59
2023/08/10 05:35:28;;;;;;;11.05;5.50;;;14.40;99.90;;;;;;7375391;19;20023;-59
2023/08/10 05:37:55;;;;;;;8.45;4.80;;;14.40;99.90;;;;;;7378357;19;20624;-59
2023/08/10 05:40:21;;;;;;;13.57;5.38;;;14.40;99.90;;;;;;7378222;19;20022;-59
2023/08/10 05:42:47;;;;;;;7.65;4.50;;;14.50;99.90;;;;;;7376657;19;20514;-60
2023/08/10 05:45:15;;;;;;;8.18;4.45;;;14.60;99.90;;;;;;7377929;19;20082;-60
2023/08/10 05:47:42;;;;;;;9.32;5.05;;;14.60;99.90;;;;;;7376375;19;20384;-60
2023/08/10 05:50:09;;;;;;;10.32;5.05;;;14.70;99.90;;;;;;7376354;19;20425;-60
2023/08/10 05:52:35;;;;;;;8.02;4.88;;;14.80;99.90;;;;;;7375862;19;20014;-61
2023/08/10 05:55:01;;;;;;;9.43;4.53;;;14.90;99.90;;;;;;7377441;19;20623;-60
2023/08/10 05:57:27;;;;;;;8.30;5.07;;;14.90;99.90;;;;;;7375613;19;20022;-59
2023/08/10 05:59:53;;;;;;;6.28;4.30;;;15.00;99.90;;;;;;7374155;19;20126;-59
2023/08/10 06:02:20;;;;;;;5.60;3.97;;;15.10;99.90;;;;;;7375451;19;20010;-59
2023/08/10 06:04:46;;;;;;;8.38;4.85;;;15.30;99.90;;;;;;7377070;19;20035;-59
2023/08/10 06:07:13;;;;;;;7.75;4.45;;;15.40;99.90;;;;;;7376014;19;20018;-60
2023/08/10 06:09:39;;;;;;;10.07;4.10;;;15.80;99.90;;;;;;7377351;19;20527;-60
2023/08/10 06:12:06;;;;;;;6.95;3.40;;;16.20;99.90;;;;;;7374338;19;20053;-61
2023/08/10 06:14:33;;;;;;;10.93;3.70;;;16.60;99.90;;;;;;7376672;19;20018;-61
2023/08/10 06:17:04;;;;;;;8.00;2.95;;;17.10;99.90;;;;;;7378070;19;20018;-62
2023/08/10 06:19:31;;;;;;;7.50;3.13;;;17.40;99.90;;;;;;7373495;19;20022;-61
2023/08/10 06:21:57;;;;;;;8.10;3.00;;;17.50;99.90;;;;;;7373531;19;20026;-60
2023/08/10 06:24:24;;;;;;;7.82;2.72;;;17.60;99.90;;;;;;7373166;19;20015;-60
2023/08/10 06:26:51;;;;;;;8.18;2.78;;;17.50;99.90;;;;;;7375480;19;20014;-62
2023/08/10 06:29:17;;;;;;;5.07;2.55;;;17.40;99.90;;;;;;7374733;19;20019;-59
2023/08/10 06:31:43;;;;;;;10.27;2.60;;;17.40;99.90;;;;;;7371611;19;20025;-60
2023/08/10 06:34:09;;;;;;;6.55;2.08;;;17.50;99.90;;;;;;7375020;19;20575;-60
2023/08/10 06:36:36;;;;;;;9.63;2.40;;;17.60;99.90;;;;;;7374568;19;20054;-60
2023/08/10 06:39:04;;;;;;;6.80;2.13;;;18.00;99.90;;;;;;7376909;19;20062;-62
2023/08/10 06:41:30;;;;;;;8.75;1.95;;;18.30;99.90;;;;;;7372824;19;20081;-61
2023/08/10 06:43:57;;;;;;;6.28;1.40;;;18.50;99.90;;;;;;7377192;19;20040;-61
2023/08/10 06:46:23;;;;;;;6.85;1.40;;;18.60;99.90;;;;;;7371702;19;20442;-61
2023/08/10 06:48:49;;;;;;;3.80;1.45;;;18.50;99.90;;;;;;7376526;19;20514;-61
2023/08/10 06:51:15;;;;;;;5.88;1.80;;;18.50;99.90;;;;;;7373977;19;20050;-61
2023/08/10 06:53:42;;;;;;;6.05;1.70;;;18.50;99.90;;;;;;7376552;19;20014;-61
2023/08/10 06:56:11;;;;;;;12.40;1.80;;;18.40;99.90;;;;;;7376053;19;20827;-60
2023/08/10 06:58:37;;;;;;;5.25;1.63;;;18.60;99.90;;;;;;7372883;19;20616;-59
2023/08/10 07:01:03;;;;;;;5.25;1.80;;;18.60;99.90;;;;;;7364237;19;20496;-60
2023/08/10 07:03:30;;;;;;;6.15;1.70;;;18.50;99.90;;;;;;7374108;19;20032;-59
2023/08/10 07:05:56;;;;;;;6.88;1.98;;;18.50;99.90;;;;;;7372532;19;20559;-59
2023/08/10 07:08:22;;;;;;;6.03;1.90;;;18.50;99.90;;;;;;7373795;19;20018;-59
2023/08/10 07:10:48;;;;;;;10.27;2.00;;;18.50;99.90;;;;;;7371551;19;20846;-59
2023/08/10 07:13:14;;;;;;;7.88;1.85;;;18.80;99.90;;;;;;7370744;19;20304;-61
2023/08/10 07:15:42;;;;;;;4.22;1.63;;;19.10;99.90;;;;;;7373308;19;20608;-59
2023/08/10 07:18:09;;;;;;;6.75;1.60;;;19.60;99.90;;;;;;7370845;19;20624;-60
2023/08/10 07:20:35;;;;;;;6.00;1.30;;;19.70;99.90;;;;;;7370854;19;20118;-60
2023/08/10 07:23:01;;;;;;;3.95;1.08;;;20.10;99.90;;;;;;7371498;19;20035;-60
2023/08/10 07:25:28;;;;;;;9.35;1.67;;;20.20;99.90;;;;;;7371722;19;20078;-59
2023/08/10 07:27:55;;;;;;;5.95;1.50;;;20.50;99.90;;;;;;7373637;19;20335;-59
2023/08/10 07:30:21;;;;;;;3.90;0.88;;;20.70;99.90;;;;;;7371871;19;20018;-61
2023/08/10 07:32:48;;;;;;;4.65;1.35;;;21.00;99.90;;;;;;7373707;19;20094;-60
2023/08/10 07:35:14;;;;;;;4.50;0.95;;;21.10;99.90;;;;;;7372507;19;20022;-60
2023/08/10 07:37:40;;;;;;;4.82;1.02;;;21.50;99.90;;;;;;7370696;19;20019;-60
2023/08/10 07:40:11;;;;;;;4.88;1.40;;;21.50;99.90;;;;;;7369407;19;20036;-62
2023/08/10 07:42:40;;;;;;;4.97;1.20;;;20.80;99.90;;;;;;7370655;19;20354;-60
2023/08/10 07:45:10;;;;;;;7.05;1.10;;;20.90;99.90;;;;;;7374130;19;20015;-60
2023/08/10 07:47:37;;;;;;;8.10;1.30;;;20.80;99.90;;;;;;7362313;19;20019;-60
2023/08/10 07:50:05;;;;;;;3.42;1.25;;;20.90;99.90;;;;;;7370197;19;20108;-60
2023/08/10 07:52:32;;;;;;;4.10;1.15;;;20.80;99.90;;;;;;7371933;19;20134;-61
2023/08/10 07:54:58;;;;;;;4.70;1.08;;;20.50;99.90;;;;;;7369096;19;20054;-61
2023/08/10 07:57:24;;;;;;;5.55;1.20;;;20.50;99.90;;;;;;7376580;19;20019;-59
2023/08/10 07:59:50;;;;;;;6.13;1.20;;;20.30;99.90;;;;;;7380061;19;20014;-59
2023/08/10 08:02:16;;;;;;;9.23;1.48;;;20.30;99.90;;;;;;7375839;19;20103;-60
2023/08/10 08:04:43;;;;;;;5.22;1.40;;;20.20;99.90;;;;;;7377914;19;20014;-60
2023/08/10 08:07:10;;;;;;;6.40;1.38;;;20.00;99.90;;;;;;7381668;19;20593;-59
2023/08/10 08:09:36;;;;;;;8.05;1.50;;;20.00;99.90;;;;;;7375848;19;20018;-61
2023/08/10 08:12:02;;;;;;;5.22;1.40;;;19.90;99.90;;;;;;7370439;19;20046;-60
2023/08/10 08:14:28;;;;;;;7.85;1.77;;;19.70;99.90;;;;;;7377137;19;20022;-59
2023/08/10 08:16:55;;;;;;;7.85;1.50;;;19.60;99.90;;;;;;7378269;19;20405;-61
2023/08/10 08:19:21;;;;;;;6.38;1.92;;;19.60;99.90;;;;;;7378738;19;20019;-61
2023/08/10 08:21:48;;;;;;;4.60;1.30;;;19.70;99.90;;;;;;7377922;19;20022;-60
2023/08/10 08:24:18;;;;;;;4.85;1.77;;;19.60;99.90;;;;;;7378113;19;20368;-60
2023/08/10 08:26:44;;;;;;;11.23;1.63;;;19.70;99.90;;;;;;7375078;19;20022;-60
2023/08/10 08:29:11;;;;;;;4.50;1.10;;;19.40;99.90;;;;;;7379855;19;20121;-61
2023/08/10 08:31:37;;;;;;;4.15;1.20;;;19.40;99.90;;;;;;7377133;19;20014;-61
2023/08/10 08:34:04;;;;;;;5.88;1.52;;;19.10;99.90;;;;;;7379027;19;20115;-60
2023/08/10 08:36:30;;;;;;;8.35;1.30;;;19.10;99.90;;;;;;7378233;19;20506;-62
2023/08/10 08:38:56;;;;;;;5.57;1.38;;;19.10;99.90;;;;;;7381427;19;20033;-60
2023/08/10 08:41:27;;;;;;;4.30;1.10;;;19.20;99.90;;;;;;7374760;19;20019;-61
2023/08/10 08:43:54;;;;;;;4.80;0.93;;;19.10;99.90;;;;;;7377390;19;20050;-61
2023/08/10 08:46:29;;;;;;;4.07;0.82;;;19.30;99.90;;;;;;7376686;19;20453;-60
2023/08/10 08:48:56;;;;;;;5.28;1.33;;;19.30;99.90;;;;;;7377119;19;20390;-60
2023/08/10 08:51:22;;;;;;;10.30;1.70;;;19.20;99.90;;;;;;7370459;19;20019;-60
2023/08/10 08:53:51;;;;;;;5.10;1.27;;;19.20;99.90;;;;;;7373711;19;20011;-59
2023/08/10 08:56:18;;;;;;;6.32;1.20;;;19.10;99.90;;;;;;7374835;19;20024;-60
2023/08/10 08:58:44;;;;;;;3.83;1.02;;;19.00;99.90;;;;;;7377235;19;20018;-60
2023/08/10 09:01:13;;;;;;;4.68;1.35;;;19.00;99.90;;;;;;7370335;19;20022;-60
2023/08/10 09:03:40;;;;;;;7.65;1.63;;;19.00;99.90;;;;;;7369055;19;20460;-60
2023/08/10 09:06:06;;;;;;;3.85;1.17;;;18.90;99.90;;;;;;7374256;19;20025;-59
2023/08/10 09:08:34;;;;;;;6.35;1.50;;;18.80;99.90;;;;;;7370222;19;20019;-59
2023/08/10 09:11:02;;;;;;;7.15;1.35;;;18.80;99.90;;;;;;7371981;19;20453;-60
2023/08/10 09:13:28;;;;;;;4.75;1.55;;;18.80;99.90;;;;;;7373952;19;20010;-59
2023/08/10 09:16:12;;;;;;;3.45;1.30;;;18.80;99.90;;;;;;7376694;19;20358;-59
2023/08/10 09:18:42;;;;;;;7.57;1.60;;;18.70;99.90;;;;;;7373301;19;20015;-60
2023/08/10 09:21:15;;;;;;;5.20;1.70;;;18.80;99.90;;;;;;7374591;19;20022;-60
2023/08/10 09:23:43;;;;;;;3.97;1.30;;;18.80;99.90;;;;;;7376091;19;20018;-59
2023/08/10 09:26:10;;;;;;;4.18;1.55;;;18.70;99.90;;;;;;7379101;19;20018;-59
2023/08/10 09:28:37;;;;;;;5.35;1.13;;;18.80;99.90;;;;;;7375555;19;20466;-59
2023/08/10 09:31:09;;;;;;;5.18;1.40;;;18.80;99.90;;;;;;7377026;19;20094;-60
2023/08/10 09:33:37;;;;;;;4.93;1.55;;;18.80;99.90;;;;;;7373010;19;20019;-59
2023/08/10 09:36:08;;;;;;;5.57;1.33;;;18.70;99.90;;;;;;7374681;19;20477;-59
2023/08/10 09:38:35;;;;;;;7.27;1.50;;;18.80;99.90;;;;;;7372857;19;20025;-61
2023/08/10 09:41:14;;;;;;;5.10;1.60;;;18.80;99.90;;;;;;7375696;19;20467;-59
2023/08/10 09:43:42;;;;;;;6.97;1.85;;;18.80;99.90;;;;;;7371742;19;20469;-59
2023/08/10 09:46:10;;;;;;;8.68;2.00;;;18.70;99.90;;;;;;7371334;19;20019;-58
2023/08/10 09:48:42;;;;;;;5.93;1.52;;;18.80;99.90;;;;;;7371823;19;20021;-59
2023/08/10 09:51:10;;;;;;;7.25;2.17;;;18.80;99.90;;;;;;7370975;19;20490;-61
2023/08/10 09:53:37;;;;;;;8.10;2.15;;;18.80;99.90;;;;;;7371061;19;20504;-59
2023/08/10 09:56:07;;;;;;;6.70;1.70;;;18.80;99.90;;;;;;7371470;19;20019;-63
2023/08/10 09:58:36;;;;;;;5.25;1.60;;;18.80;99.90;;;;;;7371203;19;20022;-59
2023/08/10 10:01:03;;;;;;;7.10;1.75;;;18.80;99.90;;;;;;7370874;19;20637;-59
2023/08/10 10:03:31;;;;;;;6.82;1.70;;;18.80;99.90;;;;;;7371890;19;20387;-61
2023/08/10 10:05:59;;;;;;;7.03;1.80;;;18.90;99.90;;;;;;7374810;19;20022;-61
2023/08/10 10:08:26;;;;;;;5.80;1.45;;;18.80;99.90;;;;;;7369527;19;20422;-59
2023/08/10 10:10:58;;;;;;;5.53;2.10;;;18.80;99.90;;;;;;7370358;19;20402;-59
2023/08/10 10:13:30;;;;;;;7.68;1.92;;;18.80;99.90;;;;;;7371096;19;20507;-61
2023/08/10 10:15:57;;;;;;;8.20;1.90;;;18.90;99.90;;;;;;7370477;19;20478;-61
2023/08/10 10:18:24;;;;;;;4.95;2.40;;;19.00;99.90;;;;;;7369351;19;20015;-61
2023/08/10 10:20:51;;;;;;;7.25;1.77;;;19.10;99.90;;;;;;7367982;19;20022;-61
2023/08/10 10:23:20;;;;;;;7.38;2.20;;;19.10;99.90;;;;;;7367187;19;20039;-60
2023/08/10 10:25:57;;;;;;;6.80;2.28;;;19.10;99.90;;;;;;7371499;19;20477;-61
2023/08/10 10:28:24;;;;;;;9.95;2.10;;;19.10;99.90;;;;;;7372974;19;20401;-61
2023/08/10 10:30:55;;;;;;;9.25;2.35;;;19.10;99.90;;;;;;7373855;19;20040;-61
2023/08/10 10:33:24;;;;;;;9.30;2.53;;;19.10;99.90;;;;;;7373508;19;20370;-60
2023/08/10 10:36:23;;;;;;;5.15;2.08;;;19.10;99.90;;;;;;7371888;19;20421;-61
2023/08/10 10:39:04;;;;;;;6.65;2.08;;;19.20;99.90;;;;;;7372185;19;20458;-61
2023/08/10 10:41:32;;;;;;;5.15;2.20;;;19.10;99.90;;;;;;7369705;19;20099;-61
2023/08/10 10:44:00;;;;;;;8.05;2.28;;;19.20;99.90;;;;;;7373733;19;20019;-61
2023/08/10 10:46:33;;;;;;;7.28;2.28;;;19.10;99.90;;;;;;7371925;19;20019;-59
2023/08/10 10:49:00;;;;;;;7.68;2.00;;;19.30;99.90;;;;;;7372090;19;20019;-60
2023/08/10 10:51:28;;;;;;;6.55;2.22;;;19.30;99.90;;;;;;7367405;19;20018;-61
2023/08/10 10:53:55;;;;;;;7.60;2.15;;;19.30;99.90;;;;;;7364859;19;20014;-59
2023/08/10 10:56:22;;;;;;;6.88;2.33;;;19.30;99.90;;;;;;7367630;19;20018;-59
2023/08/10 10:58:49;;;;;;;6.43;1.90;;;19.30;99.90;;;;;;7369019;19;20022;-61
2023/08/10 11:01:22;;;;;;;6.22;1.73;;;19.40;99.90;;;;;;7367637;19;20472;-61
2023/08/10 11:03:53;;;;;;;7.10;1.48;;;19.50;99.90;;;;;;7369475;19;20033;-63
2023/08/10 11:06:20;;;;;;;9.77;2.00;;;19.50;99.90;;;;;;7367543;19;20128;-61
2023/08/10 11:08:55;;;;;;;6.22;1.98;;;19.60;99.90;;;;;;7366763;19;20022;-61
2023/08/10 11:11:22;;;;;;;6.25;1.60;;;19.60;99.90;;;;;;7364896;19;20033;-60
2023/08/10 11:13:49;;;;;;;6.72;2.20;;;19.70;99.90;;;;;;7368735;19;20366;-61
2023/08/10 11:16:16;;;;;;;5.03;2.15;;;19.70;99.90;;;;;;7368129;19;20339;-61
2023/08/10 11:18:42;;;;;;;4.95;1.85;;;19.80;99.90;;;;;;7365546;19;20467;-61
2023/08/10 11:21:09;;;;;;;6.15;2.10;;;19.80;99.90;;;;;;7368616;19;20014;-61
2023/08/10 11:23:38;;;;;;;7.90;2.10;;;19.70;99.90;;;;;;7365274;19;20049;-61
2023/08/10 11:26:04;;;;;;;8.10;2.33;;;19.70;99.90;;;;;;7368927;19;20098;-61
2023/08/10 11:28:31;;;;;;;7.05;2.15;;;19.80;99.90;;;;;;7367190;19;20033;-61
2023/08/10 11:31:02;;;;;;;4.80;2.03;;;19.90;99.90;;;;;;7367831;19;20102;-61
2023/08/10 11:33:29;;;;;;;6.60;2.75;;;19.90;99.90;;;;;;7364561;19;20021;-61
2023/08/10 11:35:56;;;;;;;7.40;2.20;;;20.00;99.90;;;;;;7369255;19;20457;-61
2023/08/10 11:38:23;;;;;;;7.65;2.58;;;20.00;99.90;;;;;;7366818;19;20014;-59
2023/08/10 11:40:50;;;;;;;5.60;2.30;;;20.00;99.90;;;;;;7370493;19;20354;-59
2023/08/10 11:43:19;;;;;;;6.20;2.75;;;20.10;99.90;;;;;;7366945;19;20077;-58
2023/08/10 11:45:46;;;;;;;5.30;2.20;;;20.20;99.90;;;;;;7366889;19;20355;-57
2023/08/10 11:48:16;;;;;;;12.23;2.97;;;20.10;99.90;;;;;;7370871;19;20493;-57
2023/08/10 11:50:43;;;;;;;6.10;2.25;;;20.20;99.90;;;;;;7373016;19;20044;-57
2023/08/10 11:53:12;;;;;;;8.48;2.60;;;20.60;99.90;;;;;;7370913;19;20462;-57
2023/08/10 11:55:43;;;;;;;9.10;2.38;;;20.90;99.90;;;;;;7368852;19;20015;-57
2023/08/10 11:58:10;;;;;;;6.30;2.83;;;21.40;99.90;;;;;;7373652;19;20497;-57
2023/08/10 12:00:38;;;;;;;8.05;2.67;;;21.50;99.90;;;;;;7370356;19;20018;-61
2023/08/10 12:03:14;;;;;;;7.22;2.55;;;21.80;99.90;;;;;;7364068;19;20561;-57
2023/08/10 12:05:46;;;;;;;5.65;2.10;;;21.80;99.90;;;;;;7370181;19;20082;-57
2023/08/10 12:08:14;;;;;;;4.80;2.10;;;22.00;99.90;;;;;;7368012;19;20019;-61
2023/08/10 12:10:43;;;;;;;7.28;2.30;;;22.00;99.90;;;;;;7370372;19;20015;-61
2023/08/10 12:13:14;;;;;;;5.38;2.40;;;22.10;99.90;;;;;;7363616;19;20082;-58
2023/08/10 12:15:51;;;;;;;4.78;2.15;;;22.30;99.90;;;;;;7363036;19;20034;-61
2023/08/10 12:18:19;;;;;;;6.43;2.30;;;22.30;99.90;;;;;;7367453;19;20058;-57
2023/08/10 12:20:48;;;;;;;6.03;3.03;;;22.40;99.90;;;;;;7371209;19;20086;-58
2023/08/10 12:23:15;;;;;;;7.57;2.38;;;22.50;99.90;;;;;;7363773;19;20022;-60
2023/08/10 12:25:45;;;;;;;8.02;2.42;;;22.80;99.90;;;;;;7363595;19;20068;-60
2023/08/10 12:28:13;;;;;;;4.03;2.50;;;22.90;99.90;;;;;;7369423;19;20022;-61
2023/08/10 12:30:39;;;;;;;7.88;2.92;;;23.00;99.90;;;;;;7366935;19;20105;-61
2023/08/10 12:33:12;;;;;;;7.30;2.58;;;23.30;99.90;;;;;;7367288;19;20034;-60
2023/08/10 12:35:39;;;;;;;5.00;2.72;;;23.20;99.90;;;;;;7362727;19;20449;-61
2023/08/10 12:38:06;;;;;;;4.75;2.35;;;23.10;99.90;;;;;;7365412;19;20502;-61
2023/08/10 12:40:34;;;;;;;6.80;2.75;;;23.20;99.90;;;;;;7367701;19;20057;-61
2023/08/10 12:43:00;;;;;;;6.82;3.05;;;23.10;99.90;;;;;;7368381;19;20027;-66
2023/08/10 12:45:26;;;;;;;5.40;3.30;;;23.00;99.90;;;;;;7370719;19;20052;-61
2023/08/10 12:47:56;;;;;;;6.22;3.00;;;22.90;99.90;;;;;;7373715;19;20062;-60